sensor_id;sensor_type;location;lat;lon;timestamp;P1;durP1;ratioP1;P2;durP2;ratioP2
76065;SDS011;64763;48.928;8.474;2023-08-12T00:00:31;5.30;;;3.77;;
76065;SDS011;64763;48.928;8.474;2023-08-12T00:02:56;4.75;;;3.63;;
76065;SDS011;64763;48.928;8.474;2023-08-12T00:05:21;4.67;;;3.33;;
76065;SDS011;64763;48.928;8.474;2023-08-12T00:07:47;5.27;;;3.60;;
76065;SDS011;64763;48.928;8.474;2023-08-12T00:10:13;5.43;;;3.70;;
76065;SDS011;64763;48.928;8.474;2023-08-12T00:12:38;6.17;;;3.53;;
76065;SDS011;64763;48.928;8.474;2023-08-12T00:15:04;4.88;;;3.67;;
76065;SDS011;64763;48.928;8.474;2023-08-12T00:17:31;5.50;;;3.75;;
76065;SDS011;64763;48.928;8.474;2023-08-12T00:19:56;7.27;;;3.50;;
76065;SDS011;64763;48.928;8.474;2023-08-12T00:22:22;5.93;;;3.75;;
76065;SDS011;64763;48.928;8.474;2023-08-12T00:24:47;5.97;;;3.37;;
76065;SDS011;64763;48.928;8.474;2023-08-12T00:27:12;5.03;;;3.47;;
76065;SDS011;64763;48.928;8.474;2023-08-12T00:29:37;6.23;;;3.73;;
76065;SDS011;64763;48.928;8.474;2023-08-12T00:32:02;5.80;;;3.60;;
76065;SDS011;64763;48.928;8.474;2023-08-12T00:34:28;4.80;;;3.40;;
76065;SDS011;64763;48.928;8.474;2023-08-12T00:36:53;5.03;;;3.60;;
76065;SDS011;64763;48.928;8.474;2023-08-12T00:39:18;5.43;;;3.40;;
76065;SDS011;64763;48.928;8.474;2023-08-12T00:41:44;5.27;;;3.40;;
76065;SDS011;64763;48.928;8.474;2023-08-12T00:44:09;5.50;;;3.53;;
76065;SDS011;64763;48.928;8.474;2023-08-12T00:46:34;5.33;;;3.43;;
76065;SDS011;64763;48.928;8.474;2023-08-12T00:48:59;5.30;;;3.40;;
76065;SDS011;64763;48.928;8.474;2023-08-12T00:51:25;3.97;;;3.03;;
76065;SDS011;64763;48.928;8.474;2023-08-12T00:53:50;5.18;;;3.63;;
76065;SDS011;64763;48.928;8.474;2023-08-12T00:56:16;4.97;;;3.28;;
76065;SDS011;64763;48.928;8.474;2023-08-12T00:58:41;7.38;;;3.20;;
76065;SDS011;64763;48.928;8.474;2023-08-12T01:01:07;5.25;;;3.60;;
76065;SDS011;64763;48.928;8.474;2023-08-12T01:03:33;4.67;;;3.13;;
76065;SDS011;64763;48.928;8.474;2023-08-12T01:05:58;5.93;;;3.60;;
76065;SDS011;64763;48.928;8.474;2023-08-12T01:08:24;4.43;;;3.25;;
76065;SDS011;64763;48.928;8.474;2023-08-12T01:10:56;4.88;;;4.15;;
76065;SDS011;64763;48.928;8.474;2023-08-12T01:13:29;5.20;;;3.25;;
76065;SDS011;64763;48.928;8.474;2023-08-12T01:15:56;5.20;;;3.42;;
76065;SDS011;64763;48.928;8.474;2023-08-12T01:18:23;4.38;;;3.50;;
76065;SDS011;64763;48.928;8.474;2023-08-12T01:20:49;4.65;;;3.50;;
76065;SDS011;64763;48.928;8.474;2023-08-12T01:23:14;4.90;;;3.17;;
76065;SDS011;64763;48.928;8.474;2023-08-12T01:25:40;7.80;;;3.85;;
76065;SDS011;64763;48.928;8.474;2023-08-12T01:28:05;5.03;;;3.75;;
76065;SDS011;64763;48.928;8.474;2023-08-12T01:30:32;5.22;;;3.45;;
76065;SDS011;64763;48.928;8.474;2023-08-12T01:33:00;6.65;;;3.75;;
76065;SDS011;64763;48.928;8.474;2023-08-12T01:37:57;5.20;;;3.78;;
76065;SDS011;64763;48.928;8.474;2023-08-12T01:40:23;5.70;;;3.92;;
76065;SDS011;64763;48.928;8.474;2023-08-12T01:42:49;6.00;;;3.55;;
76065;SDS011;64763;48.928;8.474;2023-08-12T01:45:15;4.72;;;3.42;;
76065;SDS011;64763;48.928;8.474;2023-08-12T01:47:43;4.40;;;3.38;;
76065;SDS011;64763;48.928;8.474;2023-08-12T01:50:09;6.05;;;3.75;;
76065;SDS011;64763;48.928;8.474;2023-08-12T01:52:34;5.90;;;3.97;;
76065;SDS011;64763;48.928;8.474;2023-08-12T01:55:00;6.47;;;3.77;;
76065;SDS011;64763;48.928;8.474;2023-08-12T01:57:25;5.03;;;3.50;;
76065;SDS011;64763;48.928;8.474;2023-08-12T01:59:51;5.20;;;3.57;;
76065;SDS011;64763;48.928;8.474;2023-08-12T02:02:16;5.35;;;3.58;;
76065;SDS011;64763;48.928;8.474;2023-08-12T02:04:41;4.27;;;3.20;;
76065;SDS011;64763;48.928;8.474;2023-08-12T02:07:08;4.97;;;3.35;;
76065;SDS011;64763;48.928;8.474;2023-08-12T02:09:33;6.25;;;3.97;;
76065;SDS011;64763;48.928;8.474;2023-08-12T02:11:58;6.23;;;4.13;;
76065;SDS011;64763;48.928;8.474;2023-08-12T02:14:23;5.57;;;3.63;;
76065;SDS011;64763;48.928;8.474;2023-08-12T02:16:49;5.18;;;3.47;;
76065;SDS011;64763;48.928;8.474;2023-08-12T02:19:14;5.40;;;3.77;;
76065;SDS011;64763;48.928;8.474;2023-08-12T02:21:39;6.17;;;4.00;;
76065;SDS011;64763;48.928;8.474;2023-08-12T02:24:04;5.10;;;3.37;;
76065;SDS011;64763;48.928;8.474;2023-08-12T02:26:30;5.38;;;3.40;;
76065;SDS011;64763;48.928;8.474;2023-08-12T02:28:55;4.65;;;3.65;;
76065;SDS011;64763;48.928;8.474;2023-08-12T02:31:20;4.97;;;3.65;;
76065;SDS011;64763;48.928;8.474;2023-08-12T02:33:46;6.03;;;3.53;;
76065;SDS011;64763;48.928;8.474;2023-08-12T02:36:11;5.97;;;3.77;;
76065;SDS011;64763;48.928;8.474;2023-08-12T02:38:36;6.63;;;3.87;;
76065;SDS011;64763;48.928;8.474;2023-08-12T02:41:01;5.83;;;3.60;;
76065;SDS011;64763;48.928;8.474;2023-08-12T02:43:26;6.63;;;4.27;;
76065;SDS011;64763;48.928;8.474;2023-08-12T02:45:52;5.40;;;3.73;;
76065;SDS011;64763;48.928;8.474;2023-08-12T02:48:17;5.55;;;4.25;;
76065;SDS011;64763;48.928;8.474;2023-08-12T02:50:42;5.27;;;4.10;;
76065;SDS011;64763;48.928;8.474;2023-08-12T02:53:07;6.20;;;4.23;;
76065;SDS011;64763;48.928;8.474;2023-08-12T02:55:33;7.65;;;4.40;;
76065;SDS011;64763;48.928;8.474;2023-08-12T02:57:59;5.75;;;3.75;;
76065;SDS011;64763;48.928;8.474;2023-08-12T03:00:24;7.07;;;4.35;;
76065;SDS011;64763;48.928;8.474;2023-08-12T03:02:49;6.20;;;4.00;;
76065;SDS011;64763;48.928;8.474;2023-08-12T03:05:15;6.53;;;3.88;;
76065;SDS011;64763;48.928;8.474;2023-08-12T03:07:40;6.00;;;4.40;;
76065;SDS011;64763;48.928;8.474;2023-08-12T03:10:05;5.70;;;4.13;;
76065;SDS011;64763;48.928;8.474;2023-08-12T03:12:31;5.03;;;3.97;;
76065;SDS011;64763;48.928;8.474;2023-08-12T03:14:56;7.37;;;4.20;;
76065;SDS011;64763;48.928;8.474;2023-08-12T03:17:21;5.80;;;4.00;;
76065;SDS011;64763;48.928;8.474;2023-08-12T03:19:46;5.03;;;3.97;;
76065;SDS011;64763;48.928;8.474;2023-08-12T03:22:11;5.90;;;3.90;;
76065;SDS011;64763;48.928;8.474;2023-08-12T03:24:37;5.87;;;4.17;;
76065;SDS011;64763;48.928;8.474;2023-08-12T03:27:02;8.00;;;4.60;;
76065;SDS011;64763;48.928;8.474;2023-08-12T03:29:27;5.63;;;4.07;;
76065;SDS011;64763;48.928;8.474;2023-08-12T03:31:52;7.40;;;4.17;;
76065;SDS011;64763;48.928;8.474;2023-08-12T03:34:17;4.93;;;3.83;;
76065;SDS011;64763;48.928;8.474;2023-08-12T03:36:43;9.33;;;3.77;;
76065;SDS011;64763;48.928;8.474;2023-08-12T03:39:08;5.65;;;3.83;;
76065;SDS011;64763;48.928;8.474;2023-08-12T03:41:33;5.47;;;3.77;;
76065;SDS011;64763;48.928;8.474;2023-08-12T03:43:59;6.33;;;4.10;;
76065;SDS011;64763;48.928;8.474;2023-08-12T03:46:24;8.43;;;4.03;;
76065;SDS011;64763;48.928;8.474;2023-08-12T03:48:49;6.70;;;4.25;;
76065;SDS011;64763;48.928;8.474;2023-08-12T03:51:15;4.80;;;4.00;;
76065;SDS011;64763;48.928;8.474;2023-08-12T03:53:40;6.57;;;4.40;;
76065;SDS011;64763;48.928;8.474;2023-08-12T03:56:05;6.33;;;3.37;;
76065;SDS011;64763;48.928;8.474;2023-08-12T03:58:30;4.85;;;3.72;;
76065;SDS011;64763;48.928;8.474;2023-08-12T04:00:55;5.07;;;3.87;;
76065;SDS011;64763;48.928;8.474;2023-08-12T04:03:21;9.37;;;3.83;;
76065;SDS011;64763;48.928;8.474;2023-08-12T04:05:47;6.83;;;3.73;;
76065;SDS011;64763;48.928;8.474;2023-08-12T04:08:12;6.47;;;3.97;;
76065;SDS011;64763;48.928;8.474;2023-08-12T04:10:37;7.90;;;3.70;;
76065;SDS011;64763;48.928;8.474;2023-08-12T04:13:02;6.50;;;3.80;;
76065;SDS011;64763;48.928;8.474;2023-08-12T04:15:28;5.43;;;3.93;;
76065;SDS011;64763;48.928;8.474;2023-08-12T04:17:53;4.87;;;3.80;;
76065;SDS011;64763;48.928;8.474;2023-08-12T04:20:18;5.47;;;4.30;;
76065;SDS011;64763;48.928;8.474;2023-08-12T04:22:43;5.73;;;4.03;;
76065;SDS011;64763;48.928;8.474;2023-08-12T04:25:08;5.43;;;4.00;;
76065;SDS011;64763;48.928;8.474;2023-08-12T04:27:34;4.70;;;3.60;;
76065;SDS011;64763;48.928;8.474;2023-08-12T04:29:59;6.93;;;4.10;;
76065;SDS011;64763;48.928;8.474;2023-08-12T04:32:24;6.00;;;3.97;;
76065;SDS011;64763;48.928;8.474;2023-08-12T04:34:49;6.70;;;4.00;;
76065;SDS011;64763;48.928;8.474;2023-08-12T04:37:15;5.50;;;3.85;;
76065;SDS011;64763;48.928;8.474;2023-08-12T04:39:40;5.85;;;4.15;;
76065;SDS011;64763;48.928;8.474;2023-08-12T04:42:05;6.30;;;4.07;;
76065;SDS011;64763;48.928;8.474;2023-08-12T04:44:31;5.53;;;4.10;;
76065;SDS011;64763;48.928;8.474;2023-08-12T04:46:56;5.10;;;4.07;;
76065;SDS011;64763;48.928;8.474;2023-08-12T04:49:21;5.07;;;3.97;;
76065;SDS011;64763;48.928;8.474;2023-08-12T04:51:48;5.55;;;3.88;;
76065;SDS011;64763;48.928;8.474;2023-08-12T04:54:16;5.43;;;4.07;;
76065;SDS011;64763;48.928;8.474;2023-08-12T04:56:41;6.73;;;4.10;;
76065;SDS011;64763;48.928;8.474;2023-08-12T04:59:06;7.37;;;4.63;;
76065;SDS011;64763;48.928;8.474;2023-08-12T05:01:33;5.68;;;4.15;;
76065;SDS011;64763;48.928;8.474;2023-08-12T05:03:58;11.80;;;4.80;;
76065;SDS011;64763;48.928;8.474;2023-08-12T05:06:23;5.70;;;4.03;;
76065;SDS011;64763;48.928;8.474;2023-08-12T05:08:49;5.43;;;4.53;;
76065;SDS011;64763;48.928;8.474;2023-08-12T05:11:14;5.30;;;4.03;;
76065;SDS011;64763;48.928;8.474;2023-08-12T05:13:39;5.70;;;4.27;;
76065;SDS011;64763;48.928;8.474;2023-08-12T05:16:05;6.23;;;4.07;;
76065;SDS011;64763;48.928;8.474;2023-08-12T05:18:30;5.00;;;3.97;;
76065;SDS011;64763;48.928;8.474;2023-08-12T05:20:55;5.33;;;4.13;;
76065;SDS011;64763;48.928;8.474;2023-08-12T05:23:20;7.83;;;4.43;;
76065;SDS011;64763;48.928;8.474;2023-08-12T05:25:46;6.85;;;4.53;;
76065;SDS011;64763;48.928;8.474;2023-08-12T05:28:15;6.63;;;4.22;;
76065;SDS011;64763;48.928;8.474;2023-08-12T05:30:40;7.55;;;4.50;;
76065;SDS011;64763;48.928;8.474;2023-08-12T05:33:05;5.30;;;4.00;;
76065;SDS011;64763;48.928;8.474;2023-08-12T05:35:34;5.93;;;3.97;;
76065;SDS011;64763;48.928;8.474;2023-08-12T05:38:00;5.68;;;4.00;;
76065;SDS011;64763;48.928;8.474;2023-08-12T05:40:25;5.50;;;4.10;;
76065;SDS011;64763;48.928;8.474;2023-08-12T05:42:50;5.47;;;3.90;;
76065;SDS011;64763;48.928;8.474;2023-08-12T05:45:15;5.10;;;4.00;;
76065;SDS011;64763;48.928;8.474;2023-08-12T05:47:40;4.80;;;4.00;;
76065;SDS011;64763;48.928;8.474;2023-08-12T05:50:06;6.20;;;3.77;;
76065;SDS011;64763;48.928;8.474;2023-08-12T05:52:31;6.22;;;4.20;;
76065;SDS011;64763;48.928;8.474;2023-08-12T05:54:56;6.32;;;3.97;;
76065;SDS011;64763;48.928;8.474;2023-08-12T05:57:22;5.27;;;4.10;;
76065;SDS011;64763;48.928;8.474;2023-08-12T05:59:47;6.13;;;4.30;;
76065;SDS011;64763;48.928;8.474;2023-08-12T06:02:12;6.63;;;4.10;;
76065;SDS011;64763;48.928;8.474;2023-08-12T06:04:37;6.33;;;4.30;;
76065;SDS011;64763;48.928;8.474;2023-08-12T06:07:02;7.50;;;4.10;;
76065;SDS011;64763;48.928;8.474;2023-08-12T06:09:28;6.37;;;4.13;;
76065;SDS011;64763;48.928;8.474;2023-08-12T06:11:53;6.63;;;4.20;;
76065;SDS011;64763;48.928;8.474;2023-08-12T06:14:18;5.00;;;3.77;;
76065;SDS011;64763;48.928;8.474;2023-08-12T06:16:43;4.80;;;3.90;;
76065;SDS011;64763;48.928;8.474;2023-08-12T06:19:08;5.93;;;4.07;;
76065;SDS011;64763;48.928;8.474;2023-08-12T06:21:34;4.47;;;3.40;;
76065;SDS011;64763;48.928;8.474;2023-08-12T06:23:59;5.03;;;3.70;;
76065;SDS011;64763;48.928;8.474;2023-08-12T06:26:24;5.73;;;3.50;;
76065;SDS011;64763;48.928;8.474;2023-08-12T06:28:49;5.10;;;3.80;;
76065;SDS011;64763;48.928;8.474;2023-08-12T06:31:14;6.83;;;4.20;;
76065;SDS011;64763;48.928;8.474;2023-08-12T06:33:40;5.68;;;3.85;;
76065;SDS011;64763;48.928;8.474;2023-08-12T06:36:05;6.73;;;3.90;;
76065;SDS011;64763;48.928;8.474;2023-08-12T06:38:31;8.05;;;4.05;;
76065;SDS011;64763;48.928;8.474;2023-08-12T06:40:56;6.00;;;4.23;;
76065;SDS011;64763;48.928;8.474;2023-08-12T06:43:21;7.40;;;3.80;;
76065;SDS011;64763;48.928;8.474;2023-08-12T06:45:46;6.57;;;4.03;;
76065;SDS011;64763;48.928;8.474;2023-08-12T06:48:11;6.13;;;3.97;;
76065;SDS011;64763;48.928;8.474;2023-08-12T06:50:37;5.68;;;4.03;;
76065;SDS011;64763;48.928;8.474;2023-08-12T06:53:02;5.33;;;3.77;;
76065;SDS011;64763;48.928;8.474;2023-08-12T06:55:27;5.40;;;4.60;;
76065;SDS011;64763;48.928;8.474;2023-08-12T06:57:52;5.43;;;3.90;;
76065;SDS011;64763;48.928;8.474;2023-08-12T07:00:18;6.77;;;4.37;;
76065;SDS011;64763;48.928;8.474;2023-08-12T07:02:43;5.37;;;4.07;;
76065;SDS011;64763;48.928;8.474;2023-08-12T07:05:08;5.90;;;4.10;;
76065;SDS011;64763;48.928;8.474;2023-08-12T07:07:33;6.05;;;4.40;;
76065;SDS011;64763;48.928;8.474;2023-08-12T07:09:59;8.50;;;4.10;;
76065;SDS011;64763;48.928;8.474;2023-08-12T07:12:24;5.50;;;4.00;;
76065;SDS011;64763;48.928;8.474;2023-08-12T07:14:49;7.50;;;4.43;;
76065;SDS011;64763;48.928;8.474;2023-08-12T07:17:14;5.57;;;4.27;;
76065;SDS011;64763;48.928;8.474;2023-08-12T07:19:39;6.37;;;4.13;;
76065;SDS011;64763;48.928;8.474;2023-08-12T07:22:05;5.07;;;4.00;;
76065;SDS011;64763;48.928;8.474;2023-08-12T07:24:30;7.50;;;4.50;;
76065;SDS011;64763;48.928;8.474;2023-08-12T07:26:55;4.63;;;3.57;;
76065;SDS011;64763;48.928;8.474;2023-08-12T07:29:20;6.97;;;4.00;;
76065;SDS011;64763;48.928;8.474;2023-08-12T07:31:46;6.00;;;4.35;;
76065;SDS011;64763;48.928;8.474;2023-08-12T07:34:11;5.73;;;4.20;;
76065;SDS011;64763;48.928;8.474;2023-08-12T07:36:38;6.03;;;4.40;;
76065;SDS011;64763;48.928;8.474;2023-08-12T07:39:03;5.28;;;4.10;;
76065;SDS011;64763;48.928;8.474;2023-08-12T07:41:28;6.57;;;4.77;;
76065;SDS011;64763;48.928;8.474;2023-08-12T07:43:54;7.43;;;4.27;;
76065;SDS011;64763;48.928;8.474;2023-08-12T07:46:19;6.33;;;4.40;;
76065;SDS011;64763;48.928;8.474;2023-08-12T07:48:44;5.63;;;4.43;;
76065;SDS011;64763;48.928;8.474;2023-08-12T07:51:09;7.40;;;4.10;;
76065;SDS011;64763;48.928;8.474;2023-08-12T07:53:35;6.43;;;4.10;;
76065;SDS011;64763;48.928;8.474;2023-08-12T07:56:00;5.33;;;4.27;;
76065;SDS011;64763;48.928;8.474;2023-08-12T07:58:25;6.10;;;4.20;;
76065;SDS011;64763;48.928;8.474;2023-08-12T08:00:53;5.77;;;4.53;;
76065;SDS011;64763;48.928;8.474;2023-08-12T08:03:19;7.28;;;4.57;;
76065;SDS011;64763;48.928;8.474;2023-08-12T08:05:44;5.53;;;4.47;;
76065;SDS011;64763;48.928;8.474;2023-08-12T08:08:10;7.50;;;4.45;;
76065;SDS011;64763;48.928;8.474;2023-08-12T08:10:35;6.97;;;4.37;;
76065;SDS011;64763;48.928;8.474;2023-08-12T08:13:01;7.03;;;4.70;;
76065;SDS011;64763;48.928;8.474;2023-08-12T08:15:26;7.27;;;4.67;;
76065;SDS011;64763;48.928;8.474;2023-08-12T08:17:51;5.87;;;4.07;;
76065;SDS011;64763;48.928;8.474;2023-08-12T08:20:16;5.47;;;4.17;;
76065;SDS011;64763;48.928;8.474;2023-08-12T08:22:41;6.20;;;4.03;;
76065;SDS011;64763;48.928;8.474;2023-08-12T08:25:07;7.00;;;4.73;;
76065;SDS011;64763;48.928;8.474;2023-08-12T08:27:32;7.70;;;4.55;;
76065;SDS011;64763;48.928;8.474;2023-08-12T08:29:58;6.32;;;4.10;;
76065;SDS011;64763;48.928;8.474;2023-08-12T08:32:23;5.97;;;4.03;;
76065;SDS011;64763;48.928;8.474;2023-08-12T08:34:48;5.90;;;4.27;;
76065;SDS011;64763;48.928;8.474;2023-08-12T08:37:13;5.38;;;4.10;;
76065;SDS011;64763;48.928;8.474;2023-08-12T08:39:39;5.77;;;4.30;;
76065;SDS011;64763;48.928;8.474;2023-08-12T08:42:07;5.63;;;4.40;;
76065;SDS011;64763;48.928;8.474;2023-08-12T08:44:34;8.70;;;4.47;;
76065;SDS011;64763;48.928;8.474;2023-08-12T08:47:00;7.47;;;4.57;;
76065;SDS011;64763;48.928;8.474;2023-08-12T08:49:26;7.35;;;4.60;;
76065;SDS011;64763;48.928;8.474;2023-08-12T08:51:51;5.32;;;4.25;;
76065;SDS011;64763;48.928;8.474;2023-08-12T08:54:17;6.28;;;4.57;;
76065;SDS011;64763;48.928;8.474;2023-08-12T08:56:43;7.30;;;4.65;;
76065;SDS011;64763;48.928;8.474;2023-08-12T08:59:08;8.07;;;4.53;;
76065;SDS011;64763;48.928;8.474;2023-08-12T09:01:34;5.57;;;4.20;;
76065;SDS011;64763;48.928;8.474;2023-08-12T09:04:01;6.40;;;4.80;;
76065;SDS011;64763;48.928;8.474;2023-08-12T09:06:28;6.40;;;4.20;;
76065;SDS011;64763;48.928;8.474;2023-08-12T09:08:54;5.25;;;4.00;;
76065;SDS011;64763;48.928;8.474;2023-08-12T09:11:19;6.10;;;4.30;;
76065;SDS011;64763;48.928;8.474;2023-08-12T09:13:46;7.20;;;4.53;;
76065;SDS011;64763;48.928;8.474;2023-08-12T09:16:11;8.48;;;4.00;;
76065;SDS011;64763;48.928;8.474;2023-08-12T09:18:36;4.63;;;3.73;;
76065;SDS011;64763;48.928;8.474;2023-08-12T09:21:02;5.03;;;3.88;;
76065;SDS011;64763;48.928;8.474;2023-08-12T09:23:27;7.30;;;4.30;;
76065;SDS011;64763;48.928;8.474;2023-08-12T09:25:53;8.65;;;4.10;;
76065;SDS011;64763;48.928;8.474;2023-08-12T09:28:18;6.30;;;3.93;;
76065;SDS011;64763;48.928;8.474;2023-08-12T09:30:44;6.38;;;3.88;;
76065;SDS011;64763;48.928;8.474;2023-08-12T09:33:14;7.30;;;3.85;;
76065;SDS011;64763;48.928;8.474;2023-08-12T09:35:40;5.55;;;3.88;;
76065;SDS011;64763;48.928;8.474;2023-08-12T09:38:06;6.72;;;3.92;;
76065;SDS011;64763;48.928;8.474;2023-08-12T09:40:33;6.80;;;4.10;;
76065;SDS011;64763;48.928;8.474;2023-08-12T09:42:58;8.20;;;4.50;;
76065;SDS011;64763;48.928;8.474;2023-08-12T09:45:24;10.23;;;4.18;;
76065;SDS011;64763;48.928;8.474;2023-08-12T09:47:50;7.28;;;4.32;;
76065;SDS011;64763;48.928;8.474;2023-08-12T09:50:15;4.72;;;3.95;;
76065;SDS011;64763;48.928;8.474;2023-08-12T09:52:40;6.20;;;4.73;;
76065;SDS011;64763;48.928;8.474;2023-08-12T09:55:06;6.83;;;3.77;;
76065;SDS011;64763;48.928;8.474;2023-08-12T09:57:31;4.95;;;4.03;;
76065;SDS011;64763;48.928;8.474;2023-08-12T09:59:58;7.07;;;4.32;;
76065;SDS011;64763;48.928;8.474;2023-08-12T10:02:24;6.15;;;4.20;;
76065;SDS011;64763;48.928;8.474;2023-08-12T10:04:50;5.82;;;4.40;;
76065;SDS011;64763;48.928;8.474;2023-08-12T10:07:16;5.75;;;4.20;;
76065;SDS011;64763;48.928;8.474;2023-08-12T10:09:42;7.23;;;4.30;;
76065;SDS011;64763;48.928;8.474;2023-08-12T10:12:08;6.70;;;4.25;;
76065;SDS011;64763;48.928;8.474;2023-08-12T10:14:34;9.95;;;4.95;;
76065;SDS011;64763;48.928;8.474;2023-08-12T10:16:59;6.03;;;4.00;;
76065;SDS011;64763;48.928;8.474;2023-08-12T10:19:24;6.47;;;4.35;;
76065;SDS011;64763;48.928;8.474;2023-08-12T10:21:50;4.95;;;3.72;;
76065;SDS011;64763;48.928;8.474;2023-08-12T10:24:19;6.45;;;4.40;;
76065;SDS011;64763;48.928;8.474;2023-08-12T10:26:44;6.00;;;4.38;;
76065;SDS011;64763;48.928;8.474;2023-08-12T10:29:10;6.03;;;4.15;;
76065;SDS011;64763;48.928;8.474;2023-08-12T10:31:37;6.60;;;4.45;;
76065;SDS011;64763;48.928;8.474;2023-08-12T10:34:03;6.05;;;4.07;;
76065;SDS011;64763;48.928;8.474;2023-08-12T10:36:28;7.67;;;4.13;;
76065;SDS011;64763;48.928;8.474;2023-08-12T10:38:54;4.82;;;3.90;;
76065;SDS011;64763;48.928;8.474;2023-08-12T10:41:22;7.20;;;4.00;;
76065;SDS011;64763;48.928;8.474;2023-08-12T10:46:49;6.15;;;4.22;;
76065;SDS011;64763;48.928;8.474;2023-08-12T10:49:07;6.38;;;3.95;;
76065;SDS011;64763;48.928;8.474;2023-08-12T10:51:40;5.43;;;4.15;;
76065;SDS011;64763;48.928;8.474;2023-08-12T10:54:24;6.28;;;3.70;;
76065;SDS011;64763;48.928;8.474;2023-08-12T11:02:20;6.22;;;3.80;;
76065;SDS011;64763;48.928;8.474;2023-08-12T11:04:51;6.65;;;3.83;;
76065;SDS011;64763;48.928;8.474;2023-08-12T11:07:17;6.60;;;4.13;;
76065;SDS011;64763;48.928;8.474;2023-08-12T11:09:43;6.68;;;4.50;;
76065;SDS011;64763;48.928;8.474;2023-08-12T11:12:08;5.80;;;4.68;;
76065;SDS011;64763;48.928;8.474;2023-08-12T11:14:46;5.53;;;4.73;;
76065;SDS011;64763;48.928;8.474;2023-08-12T11:17:14;7.55;;;5.25;;
76065;SDS011;64763;48.928;8.474;2023-08-12T11:19:40;7.25;;;4.97;;
76065;SDS011;64763;48.928;8.474;2023-08-12T11:22:05;7.60;;;5.15;;
76065;SDS011;64763;48.928;8.474;2023-08-12T11:24:31;5.67;;;4.47;;
76065;SDS011;64763;48.928;8.474;2023-08-12T11:26:58;5.55;;;4.50;;
76065;SDS011;64763;48.928;8.474;2023-08-12T11:29:24;5.30;;;4.47;;
76065;SDS011;64763;48.928;8.474;2023-08-12T11:31:50;5.87;;;4.10;;
76065;SDS011;64763;48.928;8.474;2023-08-12T11:34:15;7.43;;;4.22;;
76065;SDS011;64763;48.928;8.474;2023-08-12T11:36:41;6.70;;;4.23;;
76065;SDS011;64763;48.928;8.474;2023-08-12T11:39:07;10.75;;;4.28;;
76065;SDS011;64763;48.928;8.474;2023-08-12T11:41:33;7.20;;;4.57;;
76065;SDS011;64763;48.928;8.474;2023-08-12T11:43:58;4.75;;;3.75;;
76065;SDS011;64763;48.928;8.474;2023-08-12T11:46:24;8.23;;;4.60;;
76065;SDS011;64763;48.928;8.474;2023-08-12T11:48:50;7.05;;;4.47;;
76065;SDS011;64763;48.928;8.474;2023-08-12T11:51:15;6.83;;;4.90;;
76065;SDS011;64763;48.928;8.474;2023-08-12T11:53:40;8.23;;;4.67;;
76065;SDS011;64763;48.928;8.474;2023-08-12T11:56:05;6.10;;;4.90;;
76065;SDS011;64763;48.928;8.474;2023-08-12T11:58:37;5.73;;;5.10;;
76065;SDS011;64763;48.928;8.474;2023-08-12T12:01:02;7.40;;;5.25;;
76065;SDS011;64763;48.928;8.474;2023-08-12T12:03:28;8.63;;;5.57;;
76065;SDS011;64763;48.928;8.474;2023-08-12T12:05:55;7.40;;;5.53;;
76065;SDS011;64763;48.928;8.474;2023-08-12T12:08:20;9.00;;;5.20;;
76065;SDS011;64763;48.928;8.474;2023-08-12T12:10:46;8.20;;;5.57;;
76065;SDS011;64763;48.928;8.474;2023-08-12T12:13:11;6.20;;;4.97;;
76065;SDS011;64763;48.928;8.474;2023-08-12T12:15:40;7.35;;;5.68;;
76065;SDS011;64763;48.928;8.474;2023-08-12T12:18:10;7.38;;;5.55;;
76065;SDS011;64763;48.928;8.474;2023-08-12T12:20:36;8.30;;;5.65;;
76065;SDS011;64763;48.928;8.474;2023-08-12T12:23:05;8.13;;;5.63;;
76065;SDS011;64763;48.928;8.474;2023-08-12T12:25:30;7.88;;;5.35;;
76065;SDS011;64763;48.928;8.474;2023-08-12T12:27:56;6.53;;;5.43;;
76065;SDS011;64763;48.928;8.474;2023-08-12T12:30:21;9.15;;;5.80;;
76065;SDS011;64763;48.928;8.474;2023-08-12T12:32:46;9.10;;;5.67;;
76065;SDS011;64763;48.928;8.474;2023-08-12T12:35:12;8.90;;;5.85;;
76065;SDS011;64763;48.928;8.474;2023-08-12T12:37:37;10.45;;;5.80;;
76065;SDS011;64763;48.928;8.474;2023-08-12T12:40:03;5.97;;;5.15;;
76065;SDS011;64763;48.928;8.474;2023-08-12T12:42:30;6.35;;;5.18;;
76065;SDS011;64763;48.928;8.474;2023-08-12T12:44:55;7.15;;;5.25;;
76065;SDS011;64763;48.928;8.474;2023-08-12T12:47:20;6.40;;;4.67;;
76065;SDS011;64763;48.928;8.474;2023-08-12T12:49:46;6.45;;;5.43;;
76065;SDS011;64763;48.928;8.474;2023-08-12T12:52:11;9.27;;;4.90;;
76065;SDS011;64763;48.928;8.474;2023-08-12T12:54:36;12.60;;;5.63;;
76065;SDS011;64763;48.928;8.474;2023-08-12T12:57:01;7.77;;;5.23;;
76065;SDS011;64763;48.928;8.474;2023-08-12T12:59:28;6.13;;;4.47;;
76065;SDS011;64763;48.928;8.474;2023-08-12T13:01:53;7.57;;;5.57;;
76065;SDS011;64763;48.928;8.474;2023-08-12T13:04:19;7.53;;;4.90;;
76065;SDS011;64763;48.928;8.474;2023-08-12T13:06:44;5.27;;;4.13;;
76065;SDS011;64763;48.928;8.474;2023-08-12T13:09:09;6.03;;;4.50;;
76065;SDS011;64763;48.928;8.474;2023-08-12T13:11:34;6.53;;;3.77;;
76065;SDS011;64763;48.928;8.474;2023-08-12T13:14:00;6.47;;;4.20;;
76065;SDS011;64763;48.928;8.474;2023-08-12T13:16:25;5.80;;;4.10;;
76065;SDS011;64763;48.928;8.474;2023-08-12T13:18:50;6.40;;;3.90;;
76065;SDS011;64763;48.928;8.474;2023-08-12T13:21:16;6.87;;;4.30;;
76065;SDS011;64763;48.928;8.474;2023-08-12T13:23:41;7.20;;;5.17;;
76065;SDS011;64763;48.928;8.474;2023-08-12T13:26:06;5.70;;;4.10;;
76065;SDS011;64763;48.928;8.474;2023-08-12T13:28:31;6.33;;;4.37;;
76065;SDS011;64763;48.928;8.474;2023-08-12T13:30:57;9.48;;;4.57;;
76065;SDS011;64763;48.928;8.474;2023-08-12T13:33:22;7.20;;;3.97;;
76065;SDS011;64763;48.928;8.474;2023-08-12T13:35:47;5.47;;;3.90;;
76065;SDS011;64763;48.928;8.474;2023-08-12T13:38:12;6.27;;;4.37;;
76065;SDS011;64763;48.928;8.474;2023-08-12T13:40:38;11.53;;;5.67;;
76065;SDS011;64763;48.928;8.474;2023-08-12T13:43:03;5.47;;;4.10;;
76065;SDS011;64763;48.928;8.474;2023-08-12T13:45:28;5.20;;;3.83;;
76065;SDS011;64763;48.928;8.474;2023-08-12T13:47:54;6.85;;;4.25;;
76065;SDS011;64763;48.928;8.474;2023-08-12T13:50:19;7.35;;;4.10;;
76065;SDS011;64763;48.928;8.474;2023-08-12T13:52:45;6.72;;;4.65;;
76065;SDS011;64763;48.928;8.474;2023-08-12T13:55:12;4.78;;;3.70;;
76065;SDS011;64763;48.928;8.474;2023-08-12T13:57:37;6.07;;;3.83;;
76065;SDS011;64763;48.928;8.474;2023-08-12T14:00:02;6.60;;;3.93;;
76065;SDS011;64763;48.928;8.474;2023-08-12T14:02:29;5.90;;;3.90;;
76065;SDS011;64763;48.928;8.474;2023-08-12T14:04:55;5.30;;;4.00;;
76065;SDS011;64763;48.928;8.474;2023-08-12T14:07:20;5.40;;;3.70;;
76065;SDS011;64763;48.928;8.474;2023-08-12T14:09:45;4.73;;;3.30;;
76065;SDS011;64763;48.928;8.474;2023-08-12T14:12:11;4.68;;;3.05;;
76065;SDS011;64763;48.928;8.474;2023-08-12T14:14:36;5.70;;;3.43;;
76065;SDS011;64763;48.928;8.474;2023-08-12T14:17:01;5.77;;;3.50;;
76065;SDS011;64763;48.928;8.474;2023-08-12T14:19:26;4.67;;;3.57;;
76065;SDS011;64763;48.928;8.474;2023-08-12T14:21:52;6.97;;;3.57;;
76065;SDS011;64763;48.928;8.474;2023-08-12T14:24:17;5.63;;;3.60;;
76065;SDS011;64763;48.928;8.474;2023-08-12T14:26:42;4.93;;;3.70;;
76065;SDS011;64763;48.928;8.474;2023-08-12T14:29:07;4.27;;;3.33;;
76065;SDS011;64763;48.928;8.474;2023-08-12T14:31:33;5.60;;;3.53;;
76065;SDS011;64763;48.928;8.474;2023-08-12T14:33:58;5.13;;;3.42;;
76065;SDS011;64763;48.928;8.474;2023-08-12T14:36:23;4.63;;;3.20;;
76065;SDS011;64763;48.928;8.474;2023-08-12T14:38:49;5.07;;;3.50;;
76065;SDS011;64763;48.928;8.474;2023-08-12T14:41:14;5.78;;;3.70;;
76065;SDS011;64763;48.928;8.474;2023-08-12T14:43:40;6.33;;;4.10;;
76065;SDS011;64763;48.928;8.474;2023-08-12T14:46:05;6.10;;;4.10;;
76065;SDS011;64763;48.928;8.474;2023-08-12T14:48:31;6.37;;;3.93;;